Terminal Aerodrome Forecast
Issued by NWS Sterling, VA

Current Version | Previous Version | Text Only | Print | Product List | Glossary Off
Versions: 1 2 3 4 5 6 7 8 9 10 11 12 13 14 15 16 17 18 19 20 21 22 23

636
FTUS41 KLWX 191731
TAFMRB
TAF
KMRB 191731Z 1918/2018 28010KT P6SM FEW030 SCT050
     FM192200 29011KT P6SM FEW050 FEW250
     FM201400 32011KT P6SM FEW035
     FM201700 31011KT P6SM FEW200=

USA.gov is the U.S. government's official web portal to all federal, state and local government web resources and services.